createdAt,value
2024-04-19T00:01:26.780Z,0
2024-04-19T00:03:10.508Z,0
2024-04-19T00:04:54.201Z,0
2024-04-19T00:06:37.894Z,0
2024-04-19T00:08:21.622Z,0
2024-04-19T00:10:05.322Z,0
2024-04-19T00:11:49.023Z,0
2024-04-19T00:13:32.712Z,0
2024-04-19T00:15:16.396Z,0
2024-04-19T00:17:00.103Z,0
2024-04-19T00:18:43.810Z,0
2024-04-19T00:20:27.512Z,0
2024-04-19T00:22:11.222Z,0
2024-04-19T00:23:54.915Z,0
2024-04-19T00:25:38.612Z,0
2024-04-19T00:27:22.330Z,0
2024-04-19T00:29:06.032Z,0
2024-04-19T00:30:49.743Z,0
2024-04-19T00:32:33.441Z,0
2024-04-19T00:34:17.138Z,0
2024-04-19T00:36:00.835Z,0
2024-04-19T00:37:44.539Z,0
2024-04-19T00:39:28.258Z,0
2024-04-19T00:41:11.957Z,0
2024-04-19T00:42:55.639Z,0
2024-04-19T00:44:39.340Z,0
2024-04-19T00:46:23.036Z,0
2024-04-19T00:48:06.749Z,0
2024-04-19T00:49:50.459Z,0
2024-04-19T00:51:34.160Z,0
2024-04-19T00:53:17.849Z,0
2024-04-19T00:55:01.571Z,0
2024-04-19T00:56:45.271Z,0
2024-04-19T00:58:28.951Z,0
2024-04-19T01:00:12.657Z,1
2024-04-19T01:01:56.372Z,1
2024-04-19T01:03:40.072Z,0
2024-04-19T01:05:23.750Z,0
2024-04-19T01:07:07.457Z,0
2024-04-19T01:08:51.161Z,0
2024-04-19T01:10:34.874Z,0
2024-04-19T01:12:18.571Z,0
2024-04-19T01:14:02.286Z,0
2024-04-19T01:15:45.981Z,0
2024-04-19T01:17:29.677Z,1
2024-04-19T01:19:13.381Z,0
2024-04-19T01:20:57.075Z,0
2024-04-19T01:22:40.791Z,0
2024-04-19T01:24:24.496Z,0
2024-04-19T01:26:08.209Z,0
2024-04-19T01:27:51.875Z,0
2024-04-19T01:29:35.587Z,0
2024-04-19T01:31:19.291Z,0
2024-04-19T01:33:03.006Z,0
2024-04-19T01:34:46.732Z,0
2024-04-19T01:36:30.409Z,0
2024-04-19T01:38:14.108Z,0
2024-04-19T01:39:57.913Z,0
2024-04-19T01:41:41.509Z,0
2024-04-19T01:43:25.194Z,0
2024-04-19T01:45:08.921Z,0
2024-04-19T01:46:52.623Z,0
2024-04-19T01:48:36.310Z,0
2024-04-19T01:50:20.009Z,0
2024-04-19T01:52:03.700Z,0
2024-04-19T01:53:47.423Z,0
2024-04-19T01:55:31.185Z,1
2024-04-19T01:57:14.810Z,0
2024-04-19T01:58:58.510Z,0
2024-04-19T02:00:42.208Z,0
2024-04-19T02:02:25.937Z,0
2024-04-19T02:04:09.644Z,0
2024-04-19T02:05:53.345Z,0
2024-04-19T02:07:37.053Z,0
2024-04-19T02:09:20.747Z,0
2024-04-19T02:11:04.464Z,0
2024-04-19T02:12:48.253Z,0
2024-04-19T02:14:31.831Z,0
2024-04-19T02:16:15.548Z,0
2024-04-19T02:17:59.244Z,0
2024-04-19T02:21:26.643Z,0
2024-04-19T02:23:10.355Z,0
2024-04-19T02:24:54.057Z,0
2024-04-19T02:26:37.761Z,0
2024-04-19T02:28:21.465Z,0
2024-04-19T02:30:05.162Z,0
2024-04-19T02:31:48.864Z,0
2024-04-19T02:33:32.584Z,0
2024-04-19T02:35:16.341Z,0
2024-04-19T02:36:59.976Z,0
2024-04-19T02:38:43.652Z,0
2024-04-19T02:40:27.370Z,0
2024-04-19T02:42:11.074Z,0
2024-04-19T02:43:54.770Z,0
2024-04-19T02:45:38.481Z,0
2024-04-19T02:47:22.187Z,0
2024-04-19T02:49:05.898Z,0
2024-04-19T02:50:49.599Z,0
2024-04-19T02:52:33.315Z,0
2024-04-19T02:54:16.992Z,0
2024-04-19T02:56:00.684Z,0
2024-04-19T02:57:44.397Z,0
2024-04-19T02:59:28.097Z,0
2024-04-19T03:01:11.797Z,0
2024-04-19T03:02:55.513Z,0
2024-04-19T03:04:39.208Z,0
2024-04-19T03:06:22.918Z,0
2024-04-19T03:08:06.610Z,0
2024-04-19T03:09:50.403Z,0
2024-04-19T03:11:33.991Z,0
2024-04-19T03:13:17.707Z,0
2024-04-19T03:15:01.440Z,0
2024-04-19T03:16:45.117Z,0
2024-04-19T03:18:28.817Z,0
2024-04-19T03:20:12.528Z,0
2024-04-19T03:21:56.222Z,0
2024-04-19T03:23:39.932Z,0
2024-04-19T03:25:23.691Z,0
2024-04-19T03:28:51.053Z,0
2024-04-19T03:30:34.731Z,0
2024-04-19T03:32:18.442Z,0
2024-04-19T03:34:02.133Z,0
2024-04-19T03:35:45.819Z,0
2024-04-19T03:37:29.537Z,0
2024-04-19T03:39:13.237Z,0
2024-04-19T03:40:56.929Z,0
2024-04-19T03:42:40.634Z,0
2024-04-19T03:44:24.334Z,0
2024-04-19T03:46:08.041Z,0
2024-04-19T03:47:51.755Z,0
2024-04-19T03:49:35.420Z,0
2024-04-19T03:51:19.156Z,0
2024-04-19T03:53:02.843Z,0
2024-04-19T03:54:46.545Z,0
2024-04-19T03:56:30.234Z,0
2024-04-19T03:58:13.957Z,0
2024-04-19T03:59:57.658Z,0
2024-04-19T04:01:41.344Z,0
2024-04-19T04:03:25.087Z,0
2024-04-19T04:05:08.767Z,0
2024-04-19T04:06:52.488Z,0
2024-04-19T04:08:36.147Z,0
2024-04-19T04:10:19.891Z,0
2024-04-19T04:12:03.559Z,0
2024-04-19T04:13:47.264Z,0
2024-04-19T04:15:30.978Z,0
2024-04-19T04:17:14.690Z,1
2024-04-19T04:18:58.343Z,1
2024-04-19T04:20:42.061Z,1
2024-04-19T04:22:25.787Z,0
2024-04-19T04:24:09.484Z,1
2024-04-19T04:25:53.352Z,0
2024-04-19T04:27:36.876Z,1
2024-04-19T04:29:20.586Z,0
2024-04-19T04:31:04.302Z,1
2024-04-19T04:32:48.010Z,2
2024-04-19T04:34:31.688Z,1
2024-04-19T04:36:15.398Z,2
2024-04-19T04:37:59.108Z,3
2024-04-19T04:39:42.810Z,4
2024-04-19T04:41:26.497Z,4
2024-04-19T04:43:10.223Z,4
2024-04-19T04:44:53.913Z,5
2024-04-19T04:46:37.612Z,4
2024-04-19T04:48:21.299Z,4
2024-04-19T04:50:05.012Z,4
2024-04-19T04:51:48.722Z,5
2024-04-19T04:53:32.417Z,4
2024-04-19T04:55:16.139Z,5
2024-04-19T04:56:59.866Z,5
2024-04-19T04:58:43.549Z,6
2024-04-19T05:00:27.243Z,5
2024-04-19T05:02:10.935Z,4
2024-04-19T05:03:54.711Z,6
2024-04-19T05:05:38.344Z,6
2024-04-19T05:07:22.045Z,9
2024-04-19T05:09:05.781Z,13
2024-04-19T05:10:49.413Z,17
2024-04-19T05:12:33.121Z,20
2024-04-19T05:14:16.837Z,19
2024-04-19T05:16:00.536Z,20
2024-04-19T05:17:44.248Z,19
2024-04-19T05:19:27.947Z,18
2024-04-19T05:21:11.634Z,17
2024-04-19T05:22:55.359Z,17
2024-04-19T05:24:39.054Z,18
2024-04-19T05:26:22.744Z,19
2024-04-19T05:28:06.456Z,19
2024-04-19T05:29:50.149Z,19
2024-04-19T05:31:33.907Z,20
2024-04-19T05:33:17.573Z,21
2024-04-19T05:35:01.258Z,22
2024-04-19T05:36:44.961Z,23
2024-04-19T05:38:28.654Z,25
2024-04-19T05:40:12.395Z,26
2024-04-19T05:41:56.064Z,28
2024-04-19T05:43:39.741Z,29
2024-04-19T05:45:23.455Z,31
2024-04-19T05:47:07.173Z,33
2024-04-19T05:48:50.880Z,36
2024-04-19T05:50:34.581Z,37
2024-04-19T05:52:18.264Z,38
2024-04-19T05:54:01.985Z,41
2024-04-19T05:55:45.670Z,42
2024-04-19T05:57:29.371Z,44
2024-04-19T05:59:13.088Z,44
2024-04-19T06:00:57.001Z,43
2024-04-19T06:02:40.479Z,45
2024-04-19T06:04:24.178Z,48
2024-04-19T06:06:07.926Z,51
2024-04-19T06:09:35.402Z,54
2024-04-19T06:11:19.031Z,56
2024-04-19T06:13:02.826Z,58
2024-04-19T06:14:46.528Z,60
2024-04-19T06:16:30.236Z,62
2024-04-19T06:18:13.813Z,62
2024-04-19T06:19:57.575Z,63
2024-04-19T06:21:41.445Z,64
2024-04-19T06:23:25.238Z,61
2024-04-19T06:25:08.827Z,58
2024-04-19T06:26:52.328Z,56
2024-04-19T06:28:36.209Z,60
2024-04-19T06:30:19.878Z,68
2024-04-19T06:32:03.553Z,75
2024-04-19T06:33:47.176Z,83
2024-04-19T06:35:30.858Z,87
2024-04-19T06:37:14.539Z,93
2024-04-19T06:38:58.282Z,97
2024-04-19T06:40:42.033Z,106
2024-04-19T06:42:25.648Z,114
2024-04-19T06:44:09.370Z,117
2024-04-19T06:45:53.031Z,775
2024-04-19T06:47:36.734Z,775
2024-04-19T06:49:20.430Z,775
2024-04-19T06:51:04.171Z,776
2024-04-19T06:52:47.899Z,776
2024-04-19T06:54:31.507Z,776
2024-04-19T06:56:15.242Z,776
2024-04-19T06:57:58.954Z,776
2024-04-19T06:59:42.640Z,776
2024-04-19T07:01:26.335Z,776
2024-04-19T07:03:10.034Z,777
2024-04-19T07:04:53.824Z,777
2024-04-19T07:06:37.860Z,776
2024-04-19T07:08:21.375Z,776
2024-04-19T07:10:05.151Z,777
2024-04-19T07:11:48.715Z,777
2024-04-19T07:13:32.568Z,777
2024-04-19T07:15:16.136Z,777
2024-04-19T07:16:59.815Z,777
2024-04-19T07:18:43.463Z,776
2024-04-19T07:20:27.391Z,776
2024-04-19T07:22:10.975Z,777
2024-04-19T07:23:54.722Z,777
2024-04-19T07:25:38.458Z,777
2024-04-19T07:27:22.127Z,777
2024-04-19T07:29:05.755Z,776
2024-04-19T07:30:49.425Z,775
2024-04-19T07:32:33.085Z,776
2024-04-19T07:34:17.027Z,776
2024-04-19T07:36:00.760Z,776
2024-04-19T07:37:44.072Z,776
2024-04-19T07:39:27.776Z,776
2024-04-19T07:41:11.476Z,776
2024-04-19T07:42:55.467Z,777
2024-04-19T07:44:39.087Z,776
2024-04-19T07:46:22.589Z,777
2024-04-19T07:48:06.284Z,776
2024-04-19T07:49:50.059Z,777
2024-04-19T07:51:33.740Z,777
2024-04-19T07:53:17.681Z,776
2024-04-19T07:55:01.472Z,777
2024-04-19T07:56:45.059Z,776
2024-04-19T07:58:28.967Z,776
2024-04-19T08:00:12.525Z,776
2024-04-19T08:01:55.907Z,777
2024-04-19T08:03:39.871Z,777
2024-04-19T08:05:23.742Z,776
2024-04-19T08:07:07.379Z,776
2024-04-19T08:08:50.961Z,776
2024-04-19T08:10:34.777Z,776
2024-04-19T08:12:18.453Z,777
2024-04-19T08:14:01.925Z,777
2024-04-19T08:15:45.561Z,775
2024-04-19T08:17:29.605Z,775
2024-04-19T08:19:13.269Z,776
2024-04-19T08:20:56.940Z,776
2024-04-19T08:22:40.291Z,776
2024-04-19T08:24:23.994Z,776
2024-04-19T08:26:07.974Z,776
2024-04-19T08:27:51.575Z,776
2024-04-19T08:29:35.129Z,776
2024-04-19T08:31:18.820Z,776
2024-04-19T08:33:02.511Z,776
2024-04-19T08:34:46.206Z,775
2024-04-19T08:36:29.941Z,774
2024-04-19T08:38:13.633Z,776
2024-04-19T08:39:57.348Z,777
2024-04-19T08:41:41.028Z,776
2024-04-19T08:43:24.743Z,776
2024-04-19T08:45:08.435Z,776
2024-04-19T08:46:52.131Z,776
2024-04-19T08:48:35.846Z,777
2024-04-19T08:50:19.523Z,776
2024-04-19T08:52:03.241Z,776
2024-04-19T08:53:47.041Z,776
2024-04-19T08:55:30.700Z,776
2024-04-19T08:57:14.379Z,776
2024-04-19T08:58:58.159Z,774
2024-04-19T09:00:41.796Z,776
2024-04-19T09:02:25.558Z,778
2024-04-19T09:04:09.222Z,776
2024-04-19T09:05:52.880Z,776
2024-04-19T09:07:36.527Z,776
2024-04-19T09:09:20.343Z,776
2024-04-19T09:11:03.992Z,776
2024-04-19T09:12:47.785Z,776
2024-04-19T09:14:31.429Z,775
2024-04-19T09:16:15.110Z,776
2024-04-19T09:17:59.066Z,776
2024-04-19T09:19:42.535Z,776
2024-04-19T09:21:26.261Z,776
2024-04-19T09:23:10.138Z,777
2024-04-19T09:24:53.615Z,776
2024-04-19T09:26:37.511Z,776
2024-04-19T09:28:21.019Z,776
2024-04-19T09:30:04.771Z,776
2024-04-19T09:31:48.477Z,776
2024-04-19T09:33:32.165Z,776
2024-04-19T09:35:15.786Z,776
2024-04-19T09:36:59.477Z,775
2024-04-19T09:38:43.181Z,776
2024-04-19T09:40:26.874Z,776
2024-04-19T09:42:10.622Z,775
2024-04-19T09:43:54.365Z,775
2024-04-19T09:45:38.137Z,776
2024-04-19T09:47:21.676Z,776
2024-04-19T09:49:05.461Z,776
2024-04-19T09:50:49.083Z,776
2024-04-19T09:52:32.786Z,776
2024-04-19T09:54:16.478Z,776
2024-04-19T09:56:00.212Z,776
2024-04-19T09:57:44.006Z,776
2024-04-19T09:59:27.703Z,774
2024-04-19T10:01:11.287Z,776
2024-04-19T10:02:55.286Z,776
2024-04-19T10:04:38.911Z,776
2024-04-19T10:06:22.544Z,776
2024-04-19T10:08:06.302Z,775
2024-04-19T10:09:49.937Z,776
2024-04-19T10:11:33.486Z,776
2024-04-19T10:13:17.269Z,776
2024-04-19T10:15:01.022Z,776
2024-04-19T10:16:44.646Z,776
2024-04-19T10:18:28.563Z,776
2024-04-19T10:20:12.191Z,776
2024-04-19T10:21:55.886Z,776
2024-04-19T10:23:39.491Z,775
2024-04-19T10:25:23.257Z,776
2024-04-19T10:27:07.107Z,776
2024-04-19T10:28:50.798Z,775
2024-04-19T10:30:34.261Z,775
2024-04-19T10:32:18.087Z,776
2024-04-19T10:34:01.702Z,776
2024-04-19T10:37:29.214Z,776
2024-04-19T10:39:12.812Z,776
2024-04-19T10:40:56.473Z,775
2024-04-19T10:42:40.147Z,776
2024-04-19T10:44:23.836Z,774
2024-04-19T10:46:07.670Z,776
2024-04-19T10:47:51.463Z,776
2024-04-19T10:49:35.088Z,776
2024-04-19T10:51:18.622Z,776
2024-04-19T10:53:02.470Z,775
2024-04-19T10:54:46.142Z,776
2024-04-19T10:56:29.782Z,776
2024-04-19T10:58:13.549Z,775
2024-04-19T10:59:57.246Z,776
2024-04-19T11:01:40.839Z,776
2024-04-19T11:03:24.530Z,776
2024-04-19T11:05:08.290Z,776
2024-04-19T11:06:52.006Z,777
2024-04-19T11:08:35.659Z,776
2024-04-19T11:10:19.362Z,777
2024-04-19T11:12:03.044Z,776
2024-04-19T11:13:46.744Z,776
2024-04-19T11:15:30.439Z,776
2024-04-19T11:17:14.288Z,776
2024-04-19T11:18:57.970Z,776
2024-04-19T11:20:41.548Z,776
2024-04-19T11:22:25.242Z,776
2024-04-19T11:24:09.062Z,777
2024-04-19T11:25:52.781Z,776
2024-04-19T11:27:36.526Z,776
2024-04-19T11:29:20.189Z,776
2024-04-19T11:31:03.890Z,776
2024-04-19T11:32:47.602Z,776
2024-04-19T11:34:31.274Z,776
2024-04-19T11:36:14.890Z,776
2024-04-19T11:38:28.158Z,777
2024-04-19T11:39:42.346Z,777
2024-04-19T11:41:26.031Z,777
2024-04-19T11:43:09.756Z,776
2024-04-19T11:44:53.475Z,777
2024-04-19T11:46:37.145Z,776
2024-04-19T11:48:20.808Z,777
2024-04-19T11:50:04.518Z,776
2024-04-19T11:51:48.197Z,777
2024-04-19T11:53:31.889Z,776
2024-04-19T11:55:15.591Z,776
2024-04-19T11:56:59.293Z,776
2024-04-19T11:58:43.005Z,774
2024-04-19T12:00:26.891Z,776
2024-04-19T12:02:10.408Z,775
2024-04-19T12:03:54.105Z,776
2024-04-19T12:05:37.798Z,776
2024-04-19T12:07:21.497Z,776
2024-04-19T12:09:05.202Z,777
2024-04-19T12:10:48.944Z,777
2024-04-19T12:12:32.625Z,777
2024-04-19T12:14:16.312Z,776
2024-04-19T12:16:00.008Z,776
2024-04-19T12:17:43.707Z,776
2024-04-19T12:19:27.564Z,775
2024-04-19T12:21:11.325Z,776
2024-04-19T12:22:54.804Z,776
2024-04-19T12:24:38.510Z,776
2024-04-19T12:26:22.229Z,776
2024-04-19T12:28:05.935Z,774
2024-04-19T12:29:49.630Z,777
2024-04-19T12:31:33.332Z,776
2024-04-19T12:33:17.039Z,777
2024-04-19T12:35:00.763Z,776
2024-04-19T12:36:44.436Z,776
2024-04-19T12:38:28.129Z,776
2024-04-19T12:40:11.845Z,777
2024-04-19T12:41:55.544Z,776
2024-04-19T12:43:39.244Z,776
2024-04-19T12:45:22.951Z,776
2024-04-19T12:47:06.632Z,776
2024-04-19T12:48:50.361Z,776
2024-04-19T12:50:34.024Z,776
2024-04-19T12:52:17.742Z,776
2024-04-19T12:54:01.450Z,776
2024-04-19T12:55:45.162Z,776
2024-04-19T12:57:28.856Z,776
2024-04-19T12:59:12.546Z,776
2024-04-19T13:00:56.258Z,776
2024-04-19T13:02:39.951Z,776
2024-04-19T13:04:23.661Z,774
2024-04-19T13:06:07.349Z,776
2024-04-19T13:07:51.078Z,776
2024-04-19T13:09:34.758Z,777
2024-04-19T13:11:18.470Z,776
2024-04-19T13:13:02.159Z,776
2024-04-19T13:14:45.865Z,776
2024-04-19T13:16:29.571Z,776
2024-04-19T13:18:13.267Z,776
2024-04-19T13:19:56.959Z,776
2024-04-19T13:21:40.675Z,776
2024-04-19T13:23:24.379Z,777
2024-04-19T13:25:08.082Z,776
2024-04-19T13:26:51.772Z,776
2024-04-19T13:28:35.486Z,776
2024-04-19T13:30:19.204Z,777
2024-04-19T13:32:02.866Z,776
2024-04-19T13:33:46.581Z,776
2024-04-19T13:35:30.280Z,776
2024-04-19T13:37:13.992Z,776
2024-04-19T13:38:57.708Z,776
2024-04-19T13:40:41.394Z,776
2024-04-19T13:42:25.107Z,776
2024-04-19T13:44:08.792Z,776
2024-04-19T13:45:52.483Z,776
2024-04-19T13:47:36.210Z,776
2024-04-19T13:49:19.891Z,776
2024-04-19T13:51:03.595Z,776
2024-04-19T13:52:47.298Z,776
2024-04-19T13:54:31.014Z,776
2024-04-19T13:56:14.701Z,774
2024-04-19T13:57:58.404Z,776
2024-04-19T13:59:42.099Z,776
2024-04-19T14:01:25.818Z,776
2024-04-19T14:03:09.524Z,777
2024-04-19T14:04:53.211Z,776
2024-04-19T14:06:36.914Z,776
2024-04-19T14:08:20.625Z,776
2024-04-19T14:11:47.999Z,776
2024-04-19T14:13:31.726Z,775
2024-04-19T14:15:15.418Z,776
2024-04-19T14:16:59.126Z,776
2024-04-19T14:18:42.822Z,776
2024-04-19T14:20:26.520Z,776
2024-04-19T14:22:10.219Z,775
2024-04-19T14:23:53.932Z,776
2024-04-19T14:25:37.693Z,774
2024-04-19T14:27:21.325Z,776
2024-04-19T14:29:05.043Z,776
2024-04-19T14:30:48.761Z,777
2024-04-19T14:32:32.436Z,776
2024-04-19T14:34:16.131Z,776
2024-04-19T14:35:59.911Z,775
2024-04-19T14:37:43.546Z,776
2024-04-19T14:39:27.262Z,776
2024-04-19T14:41:10.936Z,776
2024-04-19T14:42:54.648Z,777
2024-04-19T14:44:38.466Z,776
2024-04-19T14:46:22.070Z,775
2024-04-19T14:48:05.753Z,773
2024-04-19T14:49:49.438Z,777
2024-04-19T14:51:33.155Z,776
2024-04-19T14:53:16.871Z,775
2024-04-19T14:55:00.582Z,775
2024-04-19T14:56:44.269Z,776
2024-04-19T14:58:27.955Z,775
2024-04-19T15:00:11.661Z,776
2024-04-19T15:01:55.387Z,776
2024-04-19T15:03:39.051Z,777
2024-04-19T15:05:22.761Z,776
2024-04-19T15:07:06.500Z,775
2024-04-19T15:08:50.180Z,776
2024-04-19T15:10:33.874Z,776
2024-04-19T15:14:01.259Z,776
2024-04-19T15:15:44.969Z,775
2024-04-19T15:17:28.667Z,776
2024-04-19T15:19:12.381Z,776
2024-04-19T15:20:56.071Z,776
2024-04-19T15:22:39.771Z,775
2024-04-19T15:24:23.467Z,775
2024-04-19T15:26:07.247Z,775
2024-04-19T15:27:50.905Z,775
2024-04-19T15:29:34.580Z,656
2024-04-19T15:31:18.429Z,727
2024-04-19T15:33:01.994Z,776
2024-04-19T15:34:45.723Z,776
2024-04-19T15:36:29.408Z,742
2024-04-19T15:38:13.271Z,774
2024-04-19T15:39:56.809Z,776
2024-04-19T15:41:40.504Z,775
2024-04-19T15:43:24.224Z,776
2024-04-19T15:45:07.916Z,775
2024-04-19T15:46:51.594Z,661
2024-04-19T15:48:35.315Z,467
2024-04-19T15:50:19.027Z,476
2024-04-19T15:52:02.791Z,511
2024-04-19T15:53:46.404Z,579
2024-04-19T15:55:30.110Z,590
2024-04-19T15:57:13.880Z,775
2024-04-19T15:58:57.520Z,775
2024-04-19T16:00:41.210Z,776
2024-04-19T16:02:24.920Z,776
2024-04-19T16:04:08.639Z,776
2024-04-19T16:05:52.352Z,776
2024-04-19T16:07:36.053Z,776
2024-04-19T16:09:19.737Z,775
2024-04-19T16:11:03.456Z,775
2024-04-19T16:12:47.178Z,775
2024-04-19T16:14:30.857Z,776
2024-04-19T16:16:14.544Z,776
2024-04-19T16:17:58.253Z,776
2024-04-19T16:19:41.955Z,776
2024-04-19T16:21:25.651Z,776
2024-04-19T16:23:09.348Z,776
2024-04-19T16:24:53.174Z,776
2024-04-19T16:26:37.115Z,776
2024-04-19T16:28:20.588Z,776
2024-04-19T16:30:04.465Z,776
2024-04-19T16:31:48.036Z,775
2024-04-19T16:33:31.672Z,776
2024-04-19T16:35:15.477Z,776
2024-04-19T16:36:59.235Z,775
2024-04-19T16:38:42.879Z,776
2024-04-19T16:40:26.600Z,776
2024-04-19T16:42:10.114Z,776
2024-04-19T16:43:53.804Z,775
2024-04-19T16:45:37.585Z,775
2024-04-19T16:47:21.265Z,776
2024-04-19T16:49:04.911Z,775
2024-04-19T16:50:48.759Z,776
2024-04-19T16:52:32.379Z,777
2024-04-19T16:54:16.116Z,776
2024-04-19T16:55:59.770Z,776
2024-04-19T16:57:43.403Z,776
2024-04-19T16:59:27.134Z,775
2024-04-19T17:01:10.861Z,776
2024-04-19T17:02:54.583Z,776
2024-04-19T17:04:38.229Z,776
2024-04-19T17:06:22.011Z,773
2024-04-19T17:08:05.691Z,776
2024-04-19T17:09:49.509Z,775
2024-04-19T17:11:33.072Z,776
2024-04-19T17:13:16.974Z,776
2024-04-19T17:15:00.624Z,775
2024-04-19T17:16:44.167Z,775
2024-04-19T17:18:27.828Z,776
2024-04-19T17:20:11.550Z,775
2024-04-19T17:21:55.238Z,776
2024-04-19T17:23:38.939Z,776
2024-04-19T17:25:22.657Z,776
2024-04-19T17:27:06.333Z,776
2024-04-19T17:28:50.125Z,775
2024-04-19T17:30:33.718Z,775
2024-04-19T17:32:17.452Z,776
2024-04-19T17:34:01.156Z,775
2024-04-19T17:35:44.955Z,774
2024-04-19T17:37:28.572Z,776
2024-04-19T17:39:12.286Z,776
2024-04-19T17:40:55.986Z,776
2024-04-19T17:42:39.683Z,776
2024-04-19T17:44:23.341Z,776
2024-04-19T17:46:07.039Z,776
2024-04-19T17:47:50.797Z,776
2024-04-19T17:49:34.454Z,776
2024-04-19T17:51:18.152Z,776
2024-04-19T17:53:01.854Z,776
2024-04-19T17:54:45.816Z,776
2024-04-19T17:56:29.332Z,776
2024-04-19T17:58:12.971Z,775
2024-04-19T17:59:56.783Z,775
2024-04-19T18:01:40.396Z,777
2024-04-19T18:03:24.068Z,776
2024-04-19T18:05:07.820Z,776
2024-04-19T18:06:51.523Z,776
2024-04-19T18:08:35.184Z,776
2024-04-19T18:10:18.880Z,776
2024-04-19T18:12:02.675Z,31
2024-04-19T18:13:46.314Z,30
2024-04-19T18:15:30.109Z,27
2024-04-19T18:17:13.704Z,27
2024-04-19T18:18:57.429Z,24
2024-04-19T18:20:41.167Z,28
2024-04-19T18:22:24.830Z,28
2024-04-19T18:24:08.636Z,24
2024-04-19T18:25:52.281Z,25
2024-04-19T18:27:36.037Z,26
2024-04-19T18:29:19.622Z,25
2024-04-19T18:31:03.342Z,26
2024-04-19T18:32:47.120Z,26
2024-04-19T18:34:30.718Z,27
2024-04-19T18:36:14.422Z,25
2024-04-19T18:37:58.168Z,28
2024-04-19T18:39:41.883Z,27
2024-04-19T18:41:25.516Z,27
2024-04-19T18:43:09.211Z,27
2024-04-19T18:44:52.922Z,26
2024-04-19T18:46:36.631Z,91
2024-04-19T18:48:20.332Z,97
2024-04-19T18:50:04.094Z,98
2024-04-19T18:51:47.743Z,97
2024-04-19T18:53:31.450Z,95
2024-04-19T18:55:15.197Z,92
2024-04-19T18:56:58.841Z,775
2024-04-19T18:58:42.606Z,777
2024-04-19T19:00:26.233Z,776
2024-04-19T19:02:09.960Z,23
2024-04-19T19:03:53.661Z,24
2024-04-19T19:05:37.337Z,23
2024-04-19T19:07:21.046Z,23
2024-04-19T19:09:04.744Z,24
2024-04-19T19:10:48.458Z,25
2024-04-19T19:12:32.144Z,25
2024-04-19T19:14:15.848Z,24
2024-04-19T19:15:59.558Z,24
2024-04-19T19:17:43.270Z,24
2024-04-19T19:19:26.972Z,23
2024-04-19T19:21:10.661Z,24
2024-04-19T19:22:54.353Z,24
2024-04-19T19:24:38.074Z,24
2024-04-19T19:26:21.764Z,25
2024-04-19T19:28:05.453Z,21
2024-04-19T19:29:49.160Z,18
2024-04-19T19:31:32.868Z,20
2024-04-19T19:33:16.578Z,22
2024-04-19T19:35:00.265Z,19
2024-04-19T19:36:43.965Z,23
2024-04-19T19:38:27.674Z,26
2024-04-19T19:41:55.081Z,29
2024-04-19T19:43:38.776Z,29
2024-04-19T19:45:22.494Z,32
2024-04-19T19:47:06.229Z,32
2024-04-19T19:48:49.873Z,32
2024-04-19T19:50:33.589Z,30
2024-04-19T19:52:17.281Z,19
2024-04-19T19:54:01.204Z,20
2024-04-19T19:55:44.711Z,20
2024-04-19T19:57:28.419Z,23
2024-04-19T19:59:12.211Z,5
2024-04-19T20:00:55.800Z,5
2024-04-19T20:02:39.494Z,5
2024-04-19T20:04:23.217Z,5
2024-04-19T20:06:06.895Z,5
2024-04-19T20:07:50.637Z,5
2024-04-19T20:09:34.316Z,5
2024-04-19T20:11:18.017Z,5
2024-04-19T20:13:01.878Z,4
2024-04-19T20:14:45.431Z,4
2024-04-19T20:16:29.212Z,4
2024-04-19T20:18:12.829Z,4
2024-04-19T20:19:56.524Z,4
2024-04-19T20:21:40.249Z,4
2024-04-19T20:23:24.031Z,3
2024-04-19T20:25:07.666Z,4
2024-04-19T20:26:51.349Z,3
2024-04-19T20:28:35.070Z,5
2024-04-19T20:30:18.837Z,2
2024-04-19T20:32:02.447Z,1
2024-04-19T20:33:46.128Z,3
2024-04-19T20:35:29.938Z,3
2024-04-19T20:37:13.538Z,3
2024-04-19T20:38:57.363Z,3
2024-04-19T20:40:41.021Z,3
2024-04-19T20:42:24.818Z,3
2024-04-19T20:44:08.393Z,3
2024-04-19T20:45:52.065Z,3
2024-04-19T20:47:35.813Z,4
2024-04-19T20:49:19.464Z,5
2024-04-19T20:51:03.144Z,5
2024-04-19T20:52:47.025Z,5
2024-04-19T20:54:30.568Z,6
2024-04-19T20:56:14.333Z,5
2024-04-19T20:57:57.951Z,7
2024-04-19T20:59:41.662Z,5
2024-04-19T21:01:25.422Z,5
2024-04-19T21:03:09.123Z,4
2024-04-19T21:04:52.794Z,4
2024-04-19T21:06:36.458Z,4
2024-04-19T21:08:20.318Z,4
2024-04-19T21:10:03.905Z,3
2024-04-19T21:11:47.574Z,3
2024-04-19T21:13:31.281Z,3
2024-04-19T21:15:14.961Z,3
2024-04-19T21:16:58.706Z,3
2024-04-19T21:18:42.375Z,3
2024-04-19T21:20:26.081Z,3
2024-04-19T21:22:09.778Z,3
2024-04-19T21:23:53.493Z,2
2024-04-19T21:25:37.286Z,3
2024-04-19T21:27:20.871Z,3
2024-04-19T21:29:04.633Z,3
2024-04-19T21:30:48.317Z,3
2024-04-19T21:32:32.030Z,3
2024-04-19T21:34:15.681Z,3
2024-04-19T21:35:59.386Z,3
2024-04-19T21:37:43.101Z,3
2024-04-19T21:39:26.841Z,76
2024-04-19T21:41:10.481Z,3
2024-04-19T21:42:54.182Z,2
2024-04-19T21:44:37.883Z,3
2024-04-19T21:46:21.592Z,3
2024-04-19T21:48:05.304Z,3
2024-04-19T21:49:48.986Z,3
2024-04-19T21:51:32.699Z,2
2024-04-19T21:53:16.399Z,3
2024-04-19T21:55:00.119Z,2
2024-04-19T21:56:43.788Z,2
2024-04-19T21:58:27.501Z,2
2024-04-19T22:00:11.224Z,2
2024-04-19T22:01:54.980Z,2
2024-04-19T22:03:38.600Z,2
2024-04-19T22:05:22.317Z,3
2024-04-19T22:07:06.011Z,2
2024-04-19T22:08:49.721Z,3
2024-04-19T22:10:33.436Z,2
2024-04-19T22:12:17.099Z,3
2024-04-19T22:14:00.844Z,2
2024-04-19T22:15:44.528Z,2
2024-04-19T22:17:28.234Z,2
2024-04-19T22:19:11.935Z,2
2024-04-19T22:20:55.623Z,74
2024-04-19T22:22:39.327Z,70
2024-04-19T22:24:23.022Z,75
2024-04-19T22:26:06.732Z,76
2024-04-19T22:27:50.467Z,0
2024-04-19T22:29:34.184Z,0
2024-04-19T22:31:17.854Z,1
2024-04-19T22:33:01.533Z,0
2024-04-19T22:34:45.238Z,1
2024-04-19T22:36:28.954Z,1
2024-04-19T22:38:12.660Z,0
2024-04-19T22:39:56.342Z,1
2024-04-19T22:41:40.041Z,0
2024-04-19T22:43:23.755Z,0
2024-04-19T22:45:07.469Z,0
2024-04-19T22:46:51.197Z,0
2024-04-19T22:48:34.867Z,1
2024-04-19T22:50:18.563Z,0
2024-04-19T22:52:02.263Z,0
2024-04-19T22:53:45.976Z,0
2024-04-19T22:55:29.660Z,0
2024-04-19T22:57:13.370Z,0
2024-04-19T22:58:57.062Z,0
2024-04-19T23:00:40.784Z,0
2024-04-19T23:02:24.471Z,0
2024-04-19T23:04:08.167Z,0
2024-04-19T23:05:51.859Z,0
2024-04-19T23:07:35.579Z,0
2024-04-19T23:09:19.279Z,0
2024-04-19T23:11:02.967Z,0
2024-04-19T23:12:46.705Z,0
2024-04-19T23:14:30.367Z,0
2024-04-19T23:16:14.074Z,0
2024-04-19T23:17:57.764Z,0
2024-04-19T23:19:41.469Z,0
2024-04-19T23:21:25.200Z,0
2024-04-19T23:23:08.933Z,0
2024-04-19T23:24:52.588Z,0
2024-04-19T23:26:36.302Z,0
2024-04-19T23:28:19.990Z,0
2024-04-19T23:30:03.740Z,0
2024-04-19T23:31:47.380Z,0
2024-04-19T23:33:31.100Z,0
2024-04-19T23:35:14.783Z,0
2024-04-19T23:36:58.489Z,0
2024-04-19T23:38:42.234Z,0
2024-04-19T23:40:25.944Z,0
2024-04-19T23:42:09.596Z,0
2024-04-19T23:43:53.291Z,0
2024-04-19T23:45:36.992Z,0
2024-04-19T23:47:20.689Z,0
2024-04-19T23:49:04.396Z,0
2024-04-19T23:50:48.102Z,0
2024-04-19T23:52:31.791Z,0
2024-04-19T23:54:15.492Z,0
2024-04-19T23:55:59.190Z,0
2024-04-19T23:57:42.912Z,0
2024-04-19T23:59:26.603Z,0
